createdAt,value
2022-10-06T00:05:16.428Z,98817.44
2022-10-06T00:10:40.436Z,98823.94
2022-10-06T00:16:08.526Z,98814.47
2022-10-06T00:21:33.439Z,98822.13
2022-10-06T00:26:58.455Z,98822.47
2022-10-06T00:32:26.841Z,98845.34
2022-10-06T00:37:51.457Z,98847.88
2022-10-06T00:43:17.488Z,98859.41
2022-10-06T00:48:45.478Z,98855.66
2022-10-06T00:54:11.454Z,98853.97
2022-10-06T00:59:36.832Z,98847.19
2022-10-06T01:05:10.464Z,98849.25
2022-10-06T01:10:35.499Z,98853.53
2022-10-06T01:16:12.567Z,98857.78
2022-10-06T01:21:45.644Z,98852.69
2022-10-06T01:27:13.490Z,98855.06
2022-10-06T01:32:43.678Z,98854.22
2022-10-06T01:38:07.474Z,98862.00
2022-10-06T01:43:35.469Z,98851.69
2022-10-06T01:48:59.694Z,98846.88
2022-10-06T01:54:26.801Z,98849.06
2022-10-06T01:59:54.954Z,98865.50
2022-10-06T02:05:21.489Z,98877.22
2022-10-06T02:10:47.489Z,98887.06
2022-10-06T02:16:20.729Z,98881.94
2022-10-06T02:21:47.833Z,98877.72
2022-10-06T02:27:13.502Z,98885.91
2022-10-06T02:32:49.501Z,98901.84
2022-10-06T02:38:14.537Z,98918.81
2022-10-06T02:43:39.533Z,98921.03
2022-10-06T02:49:08.845Z,98936.13
2022-10-06T02:54:32.515Z,98943.41
2022-10-06T02:59:57.986Z,98954.28
2022-10-06T03:05:33.541Z,98965.09
2022-10-06T03:10:58.573Z,98965.94
2022-10-06T03:16:30.579Z,98972.03
2022-10-06T03:21:58.840Z,98980.34
2022-10-06T03:27:32.616Z,98991.53
2022-10-06T03:32:57.637Z,99000.47
2022-10-06T03:38:24.612Z,99003.88
2022-10-06T03:43:51.609Z,99013.69
2022-10-06T03:49:16.533Z,99021.81
2022-10-06T03:54:44.580Z,99014.38
2022-10-06T04:00:09.594Z,99021.66
2022-10-06T04:05:35.620Z,99031.63
2022-10-06T04:11:02.603Z,99032.31
2022-10-06T04:16:29.632Z,99053.47
2022-10-06T04:21:56.597Z,99058.06
2022-10-06T04:27:37.582Z,99065.34
2022-10-06T04:33:04.631Z,99081.78
2022-10-06T04:38:29.853Z,99093.97
2022-10-06T04:44:00.585Z,99117.00
2022-10-06T04:49:26.034Z,99173.31
2022-10-06T04:54:50.571Z,99198.31
2022-10-06T05:00:33.790Z,99261.88
2022-10-06T05:05:57.621Z,99274.91
2022-10-06T05:11:25.782Z,99303.41
2022-10-06T05:16:53.715Z,99307.94
2022-10-06T05:22:19.642Z,99326.06
2022-10-06T05:27:44.803Z,99335.44
2022-10-06T05:33:11.590Z,99342.34
2022-10-06T05:38:29.895Z,99342.53
2022-10-06T05:43:55.663Z,99348.84
2022-10-06T05:49:24.629Z,99340.75
2022-10-06T05:54:52.645Z,99346.19
2022-10-06T06:00:18.644Z,99361.41
2022-10-06T06:05:45.611Z,99347.09
2022-10-06T06:11:19.621Z,99344.97
2022-10-06T06:16:46.843Z,99356.63
2022-10-06T06:22:13.667Z,99375.09
2022-10-06T06:27:39.656Z,99382.91
2022-10-06T06:33:06.669Z,99400.81
2022-10-06T06:38:34.635Z,99413.03
2022-10-06T06:44:00.796Z,99417.13
2022-10-06T06:49:29.671Z,99417.97
2022-10-06T06:54:57.078Z,99431.03
2022-10-06T07:00:23.686Z,99453.22
2022-10-06T07:05:47.677Z,99454.06
2022-10-06T07:11:23.661Z,99470.28
2022-10-06T07:17:01.663Z,99484.34
2022-10-06T07:22:43.699Z,99489.91
2022-10-06T07:28:13.722Z,99514.03
2022-10-06T07:33:39.692Z,99519.56
2022-10-06T07:39:04.708Z,99530.22
2022-10-06T07:44:32.728Z,99524.97
2022-10-06T07:49:57.704Z,99544.44
2022-10-06T07:55:23.748Z,99536.13
2022-10-06T08:01:03.681Z,99550.88
2022-10-06T08:06:29.824Z,99558.38
2022-10-06T08:11:55.694Z,99565.28
2022-10-06T08:17:23.749Z,99573.53
2022-10-06T08:22:47.722Z,99586.00
2022-10-06T08:28:12.823Z,99586.41
2022-10-06T08:33:44.743Z,99594.63
2022-10-06T08:39:09.823Z,99591.19
2022-10-06T08:44:43.755Z,99593.00
2022-10-06T08:50:16.759Z,99589.53
2022-10-06T08:55:49.725Z,99578.03
2022-10-06T09:01:25.799Z,99555.50
2022-10-06T09:07:11.786Z,99575.09
2022-10-06T09:12:42.065Z,99591.03
2022-10-06T09:18:12.721Z,99604.13
2022-10-06T09:23:56.757Z,99609.78
2022-10-06T09:29:20.735Z,99621.69
2022-10-06T09:34:51.746Z,99626.19
2022-10-06T09:40:44.076Z,99622.09
2022-10-06T09:46:27.752Z,99626.66
2022-10-06T09:51:51.787Z,99630.13
2022-10-06T09:57:26.016Z,99641.53
2022-10-06T10:02:52.089Z,99648.31
2022-10-06T10:08:29.816Z,99649.47
2022-10-06T10:13:59.834Z,99645.06
2022-10-06T10:19:39.796Z,99662.06
2022-10-06T10:25:15.985Z,99652.06
2022-10-06T10:30:53.803Z,99648.41
2022-10-06T10:36:20.792Z,99654.72
2022-10-06T10:41:53.811Z,99656.06
2022-10-06T10:47:32.815Z,99656.31
2022-10-06T10:53:00.822Z,99663.16
2022-10-06T10:58:35.911Z,99662.78
2022-10-06T11:04:07.807Z,99669.78
2022-10-06T11:09:35.791Z,99676.09
2022-10-06T11:15:05.822Z,99665.22
2022-10-06T11:20:55.807Z,99670.13
2022-10-06T11:26:34.843Z,99668.50
2022-10-06T11:32:08.951Z,99681.41
2022-10-06T11:37:45.821Z,99672.94
2022-10-06T11:43:17.865Z,99666.03
2022-10-06T11:48:42.848Z,99661.72
2022-10-06T11:54:09.834Z,99665.00
2022-10-06T11:59:37.863Z,99662.00
2022-10-06T12:05:56.316Z,99655.81
2022-10-06T12:11:51.863Z,99660.72
2022-10-06T12:17:21.832Z,99665.19
2022-10-06T12:22:53.847Z,99661.41
2022-10-06T12:28:32.897Z,99650.09
2022-10-06T12:34:04.855Z,99649.06
2022-10-06T12:39:31.896Z,99663.53
2022-10-06T12:45:02.878Z,99656.25
2022-10-06T12:50:33.905Z,99655.22
2022-10-06T12:56:03.895Z,99654.19
2022-10-06T13:01:32.891Z,99652.81
2022-10-06T13:07:08.404Z,99648.22
2022-10-06T13:12:40.954Z,99644.81
2022-10-06T13:18:27.901Z,99642.38
2022-10-06T13:23:55.890Z,99640.91
2022-10-06T13:29:20.910Z,99638.69
2022-10-06T13:34:54.873Z,99635.75
2022-10-06T13:40:44.435Z,99633.34
2022-10-06T13:46:08.980Z,99637.41
2022-10-06T13:51:39.951Z,99639.81
2022-10-06T13:57:05.076Z,99640.50
2022-10-06T14:02:33.072Z,99641.50
2022-10-06T14:08:00.881Z,99640.50
2022-10-06T14:13:30.905Z,99643.50
2022-10-06T14:19:02.927Z,99627.47
2022-10-06T14:24:41.003Z,99632.03
2022-10-06T14:30:05.937Z,99639.44
2022-10-06T14:35:29.966Z,99642.25
2022-10-06T14:40:57.008Z,99639.59
2022-10-06T14:46:24.998Z,99629.25
2022-10-06T14:51:51.913Z,99629.00
2022-10-06T14:57:19.954Z,99627.41
2022-10-06T15:02:45.019Z,99633.88
2022-10-06T15:08:20.966Z,99644.50
2022-10-06T15:13:48.966Z,99629.13
2022-10-06T15:19:16.115Z,99625.38
2022-10-06T15:24:40.944Z,99636.09
2022-10-06T15:30:07.970Z,99636.03
2022-10-06T15:35:33.017Z,99630.88
2022-10-06T15:40:56.967Z,99637.00
2022-10-06T15:46:25.027Z,99637.34
2022-10-06T15:51:53.964Z,99635.63
2022-10-06T15:57:21.590Z,99629.06
2022-10-06T16:02:49.100Z,99636.97
2022-10-06T16:08:14.029Z,99647.22
2022-10-06T16:13:39.171Z,99639.81
2022-10-06T16:19:08.283Z,99642.44
2022-10-06T16:24:33.006Z,99646.84
2022-10-06T16:29:58.025Z,99645.16
2022-10-06T16:35:32.010Z,99643.13
2022-10-06T16:41:03.004Z,99650.78
2022-10-06T16:46:31.391Z,99662.31
2022-10-06T16:51:59.021Z,99660.22
2022-10-06T16:57:23.007Z,99661.75
2022-10-06T17:02:48.092Z,99670.16
2022-10-06T17:08:24.018Z,99671.88
2022-10-06T17:13:54.017Z,99676.75
2022-10-06T17:19:19.083Z,99683.66
2022-10-06T17:24:47.069Z,99698.44
2022-10-06T17:30:12.106Z,99685.56
2022-10-06T17:35:38.026Z,99700.13
2022-10-06T17:41:05.112Z,99695.50
2022-10-06T17:46:47.023Z,99695.97
2022-10-06T17:52:14.048Z,99698.56
2022-10-06T17:57:42.073Z,99698.63
2022-10-06T18:03:07.079Z,99709.16
2022-10-06T18:08:33.477Z,99707.59
2022-10-06T18:14:05.105Z,99711.00
2022-10-06T18:19:33.518Z,99706.88
2022-10-06T18:24:59.327Z,99705.28
2022-10-06T18:30:29.357Z,99711.28
2022-10-06T18:36:16.330Z,99705.00
2022-10-06T18:41:43.401Z,99709.78
2022-10-06T18:47:23.059Z,99720.94
2022-10-06T18:52:49.109Z,99719.22
2022-10-06T18:58:14.247Z,99725.53
2022-10-06T19:03:41.097Z,99729.69
2022-10-06T19:09:11.149Z,99734.56
2022-10-06T19:14:39.136Z,99737.72
2022-10-06T19:20:07.099Z,99753.81
2022-10-06T19:25:33.113Z,99745.13
2022-10-06T19:31:06.352Z,99736.59
2022-10-06T19:36:34.125Z,99743.22
2022-10-06T19:42:12.144Z,99737.22
2022-10-06T19:47:37.184Z,99744.00
2022-10-06T19:53:05.100Z,99751.34
2022-10-06T19:58:29.131Z,99765.94
2022-10-06T20:03:54.160Z,99755.47
2022-10-06T20:09:21.146Z,99758.56
2022-10-06T20:14:46.274Z,99761.53
2022-10-06T20:20:11.191Z,99766.03
2022-10-06T20:25:33.114Z,99760.25
2022-10-06T20:31:00.225Z,99769.06
2022-10-06T20:36:27.150Z,99755.84
2022-10-06T20:41:55.155Z,99760.28
2022-10-06T20:47:20.238Z,99764.97
2022-10-06T20:52:45.139Z,99759.38
2022-10-06T20:58:12.170Z,99759.25
2022-10-06T21:03:37.163Z,99759.38
2022-10-06T21:09:02.168Z,99753.03
2022-10-06T21:14:30.209Z,99743.84
2022-10-06T21:19:54.190Z,99751.75
2022-10-06T21:25:19.183Z,99741.84
2022-10-06T21:30:51.625Z,99736.94
2022-10-06T21:36:16.178Z,99731.19
2022-10-06T21:41:44.198Z,99734.50
2022-10-06T21:47:12.393Z,99725.16
2022-10-06T21:52:36.235Z,99722.22
2022-10-06T21:58:01.555Z,99728.78
2022-10-06T22:03:28.206Z,99724.75
2022-10-06T22:08:54.257Z,99724.34
2022-10-06T22:14:23.480Z,99736.69
2022-10-06T22:19:50.207Z,99729.16
2022-10-06T22:25:14.227Z,99733.16
2022-10-06T22:30:39.231Z,99734.69
2022-10-06T22:36:13.240Z,99727.34
2022-10-06T22:41:38.224Z,99732.31
2022-10-06T22:47:02.253Z,99722.00
2022-10-06T22:52:30.238Z,99721.38
2022-10-06T22:57:54.232Z,99726.97
2022-10-06T23:03:19.317Z,99723.56
2022-10-06T23:08:46.247Z,99714.63
2022-10-06T23:14:11.251Z,99715.59
2022-10-06T23:19:35.674Z,99715.81
2022-10-06T23:25:03.268Z,99707.88
2022-10-06T23:30:28.250Z,99709.19
2022-10-06T23:35:59.243Z,99709.41
2022-10-06T23:41:27.248Z,99693.78
2022-10-06T23:46:51.274Z,99689.72
2022-10-06T23:52:16.267Z,99694.44
2022-10-06T23:57:44.485Z,99685.66
